Airport Name : Atyrau

Other Name : Atyrau

ICAO : UATG

IATA : GUW

FAA :

Latitude : 47.121944

Longitude : 51.821389

Country : Kazakhstan

Local Date and Time : 30 May 2024 07:33

 

TAF (Terminal Aerodrome Forecast)

TAF UATG 292304Z 3000/3024 13006MPS 9999 SCT033CB TX31/3010Z TN20/3002Z BECMG 3005/3007 15011MPS BECMG 3012/3014 09006MPS

 

METAR (METeorological Aerodrome Report)

UATG 300200Z 12004MPS 9999 SCT033CB 23/01 Q1018 NOSIG RMK QFE765/1021

UATG 300130Z 14006MPS 9999 SCT033CB 23/01 Q1018 NOSIG RMK QFE765/1021

UATG 300100Z 12005MPS 9999 SCT033CB 23/01 Q1018 NOSIG RMK QFE765/1020

UATG 300030Z 12005MPS 9999 SCT033CB 23/00 Q1018 NOSIG RMK QFE765/1020

UATG 300000Z 12006MPS 9999 SCT033CB 23/00 Q1018 NOSIG RMK QFE765/1020

UATG 292330Z 13005MPS 9999 SCT033CB 23/00 Q1018 NOSIG RMK QFE765/1020

UATG 292300Z 12006MPS 9999 SCT033CB 23/00 Q1017 NOSIG RMK QFE765/1020